createdAt,value
2023-01-30T00:01:01.570Z,15.82
2023-01-30T00:03:28.052Z,16.40
2023-01-30T00:05:54.478Z,17.40
2023-01-30T00:08:21.331Z,15.95
2023-01-30T00:10:48.165Z,18.00
2023-01-30T00:13:15.002Z,16.40
2023-01-30T00:15:41.810Z,17.05
2023-01-30T00:18:08.316Z,18.77
2023-01-30T00:20:34.768Z,16.70
2023-01-30T00:23:01.710Z,18.25
2023-01-30T00:25:28.704Z,17.15
2023-01-30T00:27:55.281Z,18.48
2023-01-30T00:30:21.753Z,18.02
2023-01-30T00:32:48.265Z,17.25
2023-01-30T00:35:14.680Z,17.20
2023-01-30T00:37:41.072Z,17.02
2023-01-30T00:40:07.660Z,17.38
2023-01-30T00:42:52.460Z,17.50
2023-01-30T00:45:37.453Z,15.60
2023-01-30T00:48:03.935Z,15.10
2023-01-30T00:50:42.469Z,18.17
2023-01-30T00:53:09.964Z,18.45
2023-01-30T00:55:36.284Z,16.45
2023-01-30T00:58:02.688Z,19.70
2023-01-30T01:00:29.256Z,17.08
2023-01-30T01:02:56.868Z,16.73
2023-01-30T01:05:23.295Z,19.27
2023-01-30T01:07:49.664Z,18.80
2023-01-30T01:10:16.638Z,18.42
2023-01-30T01:12:44.708Z,18.55
2023-01-30T01:15:14.596Z,19.05
2023-01-30T01:17:41.780Z,17.15
2023-01-30T01:20:08.842Z,20.27
2023-01-30T01:22:35.258Z,18.98
2023-01-30T01:25:01.795Z,18.85
2023-01-30T01:27:28.678Z,20.05
2023-01-30T01:29:55.212Z,18.48
2023-01-30T01:32:22.172Z,18.23
2023-01-30T01:34:48.567Z,18.10
2023-01-30T01:37:15.032Z,20.90
2023-01-30T01:40:00.239Z,18.73
2023-01-30T01:42:28.985Z,17.83
2023-01-30T01:45:04.752Z,18.08
2023-01-30T01:47:32.722Z,20.05
2023-01-30T01:49:59.297Z,18.02
2023-01-30T01:52:26.050Z,19.05
2023-01-30T01:54:52.409Z,18.88
2023-01-30T01:57:24.645Z,20.00
2023-01-30T02:00:13.760Z,18.42
2023-01-30T02:02:41.719Z,19.95
2023-01-30T02:05:11.182Z,20.60
2023-01-30T02:07:37.553Z,20.02
2023-01-30T02:10:04.667Z,17.33
2023-01-30T02:12:31.406Z,19.92
2023-01-30T02:14:59.550Z,19.80
2023-01-30T02:17:26.076Z,19.42
2023-01-30T02:20:00.517Z,20.30
2023-01-30T02:22:45.755Z,19.38
2023-01-30T02:25:12.189Z,20.05
2023-01-30T02:27:41.637Z,19.75
2023-01-30T02:30:26.896Z,18.98
2023-01-30T02:33:11.440Z,20.02
2023-01-30T02:35:52.814Z,19.25
2023-01-30T02:38:29.749Z,20.15
2023-01-30T02:41:20.486Z,19.95
2023-01-30T02:43:57.672Z,18.98
2023-01-30T02:46:32.682Z,20.13
2023-01-30T02:49:11.505Z,20.50
2023-01-30T02:51:38.906Z,22.25
2023-01-30T02:54:06.645Z,19.08
2023-01-30T02:56:53.333Z,21.63
2023-01-30T02:59:22.643Z,21.13
2023-01-30T03:02:11.385Z,20.23
2023-01-30T03:05:01.035Z,22.00
2023-01-30T03:07:46.323Z,22.07
2023-01-30T03:10:29.944Z,21.02
2023-01-30T03:13:10.187Z,22.17
2023-01-30T03:15:50.086Z,20.10
2023-01-30T03:18:20.369Z,19.95
2023-01-30T03:20:47.040Z,18.63
2023-01-30T03:23:14.284Z,20.02
2023-01-30T03:25:42.174Z,19.02
2023-01-30T03:28:08.955Z,19.58
2023-01-30T03:30:35.349Z,20.13
2023-01-30T03:33:01.811Z,18.15
2023-01-30T03:35:29.358Z,20.10
2023-01-30T03:37:55.889Z,19.85
2023-01-30T03:40:22.757Z,22.05
2023-01-30T03:42:49.172Z,20.77
2023-01-30T03:45:16.306Z,18.38
2023-01-30T03:47:42.896Z,19.75
2023-01-30T03:50:09.677Z,21.42
2023-01-30T03:52:36.177Z,20.90
2023-01-30T03:55:03.027Z,19.48
2023-01-30T03:57:29.498Z,19.88
2023-01-30T03:59:55.916Z,20.55
2023-01-30T04:02:23.462Z,20.48
2023-01-30T04:04:49.909Z,19.90
2023-01-30T04:07:16.347Z,20.60
2023-01-30T04:09:42.715Z,21.20
2023-01-30T04:12:09.150Z,18.98
2023-01-30T04:14:35.641Z,20.83
2023-01-30T04:17:02.084Z,20.00
2023-01-30T04:19:28.626Z,19.52
2023-01-30T04:21:55.085Z,18.90
2023-01-30T04:24:21.456Z,20.75
2023-01-30T04:26:47.963Z,21.83
2023-01-30T04:29:14.476Z,18.55
2023-01-30T04:31:42.177Z,20.38
2023-01-30T04:34:08.589Z,18.83
2023-01-30T04:36:34.999Z,21.02
2023-01-30T04:39:01.434Z,21.02
2023-01-30T04:41:27.863Z,20.75
2023-01-30T04:43:54.242Z,17.48
2023-01-30T04:46:20.624Z,18.88
2023-01-30T04:48:46.987Z,21.08
2023-01-30T04:51:13.357Z,18.85
2023-01-30T04:53:39.811Z,21.10
2023-01-30T04:56:06.516Z,19.45
2023-01-30T04:58:32.920Z,19.27
2023-01-30T05:01:22.744Z,17.38
2023-01-30T05:03:50.251Z,18.30
2023-01-30T05:06:16.642Z,17.80
2023-01-30T05:08:44.789Z,18.95
2023-01-30T05:11:13.055Z,18.27
2023-01-30T05:13:39.445Z,17.13
2023-01-30T05:16:05.937Z,16.70
2023-01-30T05:18:32.357Z,16.13
2023-01-30T05:21:06.191Z,15.93
2023-01-30T05:23:32.671Z,13.32
2023-01-30T05:25:59.767Z,14.23
2023-01-30T05:28:26.325Z,15.65
2023-01-30T05:30:52.775Z,15.40
2023-01-30T05:33:19.282Z,13.68
2023-01-30T05:35:49.144Z,13.23
2023-01-30T05:38:16.113Z,15.25
2023-01-30T05:40:42.832Z,14.15
2023-01-30T05:43:09.784Z,13.35
2023-01-30T05:45:36.683Z,12.80
2023-01-30T05:48:03.348Z,12.20
2023-01-30T05:50:31.280Z,12.75
2023-01-30T05:52:57.676Z,11.73
2023-01-30T05:55:24.061Z,13.13
2023-01-30T05:57:50.476Z,13.68
2023-01-30T06:00:17.166Z,12.18
2023-01-30T06:02:43.647Z,12.73
2023-01-30T06:05:10.034Z,11.70
2023-01-30T06:07:36.462Z,11.25
2023-01-30T06:10:02.902Z,11.93
2023-01-30T06:12:29.270Z,12.10
2023-01-30T06:14:55.765Z,12.38
2023-01-30T06:17:22.170Z,10.50
2023-01-30T06:19:48.598Z,11.20
2023-01-30T06:22:15.029Z,10.80
2023-01-30T06:24:41.443Z,9.32
2023-01-30T06:27:07.868Z,9.65
2023-01-30T06:29:34.298Z,10.00
2023-01-30T06:32:00.674Z,10.57
2023-01-30T06:34:27.105Z,9.88
2023-01-30T06:36:53.468Z,8.35
2023-01-30T06:39:19.921Z,9.18
2023-01-30T06:41:46.361Z,9.27
2023-01-30T06:44:15.673Z,8.10
2023-01-30T06:46:42.024Z,8.45
2023-01-30T06:49:08.467Z,9.32
2023-01-30T06:51:34.873Z,7.30
2023-01-30T06:54:02.544Z,7.93
2023-01-30T06:56:28.995Z,7.72
2023-01-30T06:58:55.422Z,6.55
2023-01-30T07:01:24.185Z,6.88
2023-01-30T07:03:50.875Z,6.68
2023-01-30T07:06:17.310Z,7.20
2023-01-30T07:08:44.500Z,7.30
2023-01-30T07:11:10.968Z,7.03
2023-01-30T07:13:37.433Z,7.05
2023-01-30T07:16:03.871Z,7.10
2023-01-30T07:18:30.305Z,6.97
2023-01-30T07:20:56.729Z,7.60
2023-01-30T07:23:23.193Z,7.25
2023-01-30T07:25:49.654Z,8.00
2023-01-30T07:28:16.037Z,7.03
2023-01-30T07:30:42.547Z,8.10
2023-01-30T07:33:09.112Z,8.25
2023-01-30T07:35:36.388Z,7.78
2023-01-30T07:38:03.216Z,8.57
2023-01-30T07:40:29.653Z,8.02
2023-01-30T07:43:00.420Z,6.60
2023-01-30T07:45:40.464Z,8.68
2023-01-30T07:48:07.755Z,7.20
2023-01-30T07:50:34.204Z,7.13
2023-01-30T07:53:03.060Z,7.40
2023-01-30T07:55:29.420Z,8.85
2023-01-30T07:57:56.081Z,8.40
2023-01-30T08:00:22.481Z,7.28
2023-01-30T08:02:48.835Z,7.55
2023-01-30T08:05:15.783Z,6.55
2023-01-30T08:07:48.655Z,5.25
2023-01-30T08:10:15.532Z,5.60
2023-01-30T08:12:42.252Z,5.55
2023-01-30T08:15:09.020Z,5.25
2023-01-30T08:17:35.410Z,6.65
2023-01-30T08:20:03.778Z,5.32
2023-01-30T08:22:30.170Z,4.45
2023-01-30T08:24:56.528Z,5.43
2023-01-30T08:27:22.978Z,5.03
2023-01-30T08:29:51.395Z,4.40
2023-01-30T08:32:17.753Z,4.50
2023-01-30T08:35:04.193Z,3.90
2023-01-30T08:37:30.622Z,4.05
2023-01-30T08:42:40.839Z,3.08
2023-01-30T08:45:34.425Z,3.67
2023-01-30T08:48:11.912Z,2.72
2023-01-30T08:50:38.404Z,3.10
2023-01-30T08:53:13.179Z,3.78
2023-01-30T08:56:21.027Z,3.78
2023-01-30T08:59:05.156Z,3.97
2023-01-30T09:01:40.227Z,4.25
2023-01-30T09:04:06.737Z,3.75
2023-01-30T09:06:47.879Z,4.30
2023-01-30T09:09:31.193Z,3.92
2023-01-30T09:14:43.728Z,5.78
2023-01-30T09:17:53.743Z,3.83
2023-01-30T09:20:32.721Z,3.95
2023-01-30T09:22:59.704Z,4.30
2023-01-30T09:25:44.297Z,3.60
2023-01-30T09:28:19.657Z,5.78
2023-01-30T09:30:46.187Z,4.55
2023-01-30T09:33:17.873Z,4.00
2023-01-30T09:35:46.874Z,3.35
2023-01-30T09:38:16.769Z,3.20
2023-01-30T09:40:54.070Z,3.75
2023-01-30T09:43:32.744Z,3.95
2023-01-30T09:46:22.810Z,3.50
2023-01-30T09:48:56.833Z,3.60
2023-01-30T09:51:50.704Z,4.50
2023-01-30T09:54:26.302Z,2.85
2023-01-30T09:57:46.967Z,2.50
2023-01-30T10:03:00.452Z,3.30
2023-01-30T10:06:18.367Z,2.30
2023-01-30T10:08:46.289Z,3.35
2023-01-30T10:15:26.038Z,2.83
2023-01-30T11:12:11.211Z,2.58
2023-01-30T11:28:52.458Z,2.63
2023-01-30T11:35:04.968Z,2.80
